Time,TemperatureF,DewpointF,PressureIn,WindDirection,WindDirectionDegrees,WindSpeedMPH,WindSpeedGustMPH,Humidity,HourlyPrecipIn,Conditions,Clouds,dailyrainin,SoftwareType,DateUTC
2013-02-17 00:02:00,16.0,16.0,-100.00,South,170,18.0,20.0,99,-99.99,,,-99.99,,2013-02-17 06:02:00,
2013-02-17 00:10:00,17.0,17.0,-100.00,SSE,165,19.0,22.0,99,-99.99,,,-99.99,,2013-02-17 06:10:00,
2013-02-17 00:32:00,17.0,17.0,-100.00,SSE,165,19.0,22.0,99,-99.99,,,-99.99,,2013-02-17 06:32:00,
2013-02-17 00:42:00,17.0,17.0,-100.00,SSE,165,19.0,22.0,99,-99.99,,,-99.99,,2013-02-17 06:42:00,
2013-02-17 00:52:00,17.0,17.0,-100.00,SSE,165,19.0,22.0,99,-99.99,,,-99.99,,2013-02-17 06:52:00,
2013-02-17 01:01:00,17.0,17.0,-100.00,SSE,165,19.0,22.0,99,-99.99,,,-99.99,,2013-02-17 07:01:00,
2013-02-17 01:11:00,18.0,17.0,-100.00,South,170,17.0,19.0,99,-99.99,,,-99.99,,2013-02-17 07:11:00,
2013-02-17 01:32:00,18.0,17.0,-100.00,South,170,17.0,19.0,99,-99.99,,,-99.99,,2013-02-17 07:32:00,
2013-02-17 01:42:00,18.0,17.0,-100.00,South,170,17.0,19.0,99,-99.99,,,-99.99,,2013-02-17 07:42:00,
2013-02-17 01:52:00,18.0,17.0,-100.00,South,170,17.0,19.0,99,-99.99,,,-99.99,,2013-02-17 07:52:00,
2013-02-17 02:01:00,18.0,17.0,-100.00,South,170,17.0,19.0,99,-99.99,,,-99.99,,2013-02-17 08:01:00,
2013-02-17 02:32:00,18.0,18.0,-100.00,South,175,15.0,17.0,99,-99.99,,,-99.99,,2013-02-17 08:32:00,
2013-02-17 02:42:00,18.0,18.0,-100.00,South,175,15.0,17.0,99,-99.99,,,-99.99,,2013-02-17 08:42:00,
2013-02-17 02:52:00,18.0,18.0,-100.00,South,175,15.0,17.0,99,-99.99,,,-99.99,,2013-02-17 08:52:00,
2013-02-17 03:01:00,18.0,18.0,-100.00,South,175,15.0,17.0,99,-99.99,,,-99.99,,2013-02-17 09:01:00,
2013-02-17 03:10:00,19.0,18.0,-100.00,SSE,160,17.0,19.0,99,-99.99,,,-99.99,,2013-02-17 09:10:00,
2013-02-17 03:32:00,19.0,18.0,-100.00,SSE,160,17.0,19.0,99,-99.99,,,-99.99,,2013-02-17 09:32:00,
2013-02-17 03:42:00,19.0,18.0,-100.00,SSE,160,17.0,19.0,99,-99.99,,,-99.99,,2013-02-17 09:42:00,
2013-02-17 03:52:00,19.0,18.0,-100.00,SSE,160,17.0,19.0,99,-99.99,,,-99.99,,2013-02-17 09:52:00,
2013-02-17 04:01:00,19.0,18.0,-100.00,SSE,160,17.0,19.0,99,-99.99,,,-99.99,,2013-02-17 10:01:00,
2013-02-17 04:10:00,18.0,18.0,-100.00,South,175,17.0,18.0,99,-99.99,,,-99.99,,2013-02-17 10:10:00,
2013-02-17 04:32:00,18.0,18.0,-100.00,South,175,17.0,18.0,99,-99.99,,,-99.99,,2013-02-17 10:32:00,
2013-02-17 04:42:00,18.0,18.0,-100.00,South,175,17.0,18.0,99,-99.99,,,-99.99,,2013-02-17 10:42:00,
2013-02-17 04:52:00,18.0,18.0,-100.00,South,175,17.0,18.0,99,-99.99,,,-99.99,,2013-02-17 10:52:00,
2013-02-17 05:01:00,18.0,18.0,-100.00,South,175,17.0,18.0,99,-99.99,,,-99.99,,2013-02-17 11:01:00,
2013-02-17 05:32:00,18.0,18.0,-100.00,South,170,16.0,18.0,99,-99.99,,,-99.99,,2013-02-17 11:32:00,
2013-02-17 05:42:00,18.0,18.0,-100.00,South,170,16.0,18.0,99,-99.99,,,-99.99,,2013-02-17 11:42:00,
2013-02-17 05:52:00,18.0,18.0,-100.00,South,170,16.0,18.0,99,-99.99,,,-99.99,,2013-02-17 11:52:00,
2013-02-17 06:03:00,18.0,18.0,-100.00,South,170,16.0,18.0,99,-99.99,,,-99.99,,2013-02-17 12:03:00,
2013-02-17 06:32:00,19.0,19.0,-100.00,South,170,19.0,21.0,99,-99.99,,,-99.99,,2013-02-17 12:32:00,
2013-02-17 06:42:00,19.0,19.0,-100.00,South,170,19.0,21.0,99,-99.99,,,-99.99,,2013-02-17 12:42:00,
2013-02-17 06:52:00,19.0,19.0,-100.00,South,170,19.0,21.0,99,-99.99,,,-99.99,,2013-02-17 12:52:00,
2013-02-17 07:02:00,19.0,19.0,-100.00,South,170,19.0,21.0,99,-99.99,,,-99.99,,2013-02-17 13:02:00,
2013-02-17 07:10:00,21.0,20.0,-100.00,South,170,19.0,21.0,99,-99.99,,,-99.99,,2013-02-17 13:10:00,
2013-02-17 07:32:00,21.0,20.0,-100.00,South,170,19.0,21.0,99,-99.99,,,-99.99,,2013-02-17 13:32:00,
2013-02-17 07:42:00,21.0,20.0,-100.00,South,170,19.0,21.0,99,-99.99,,,-99.99,,2013-02-17 13:42:00,
2013-02-17 07:52:00,21.0,20.0,-100.00,South,170,19.0,21.0,99,-99.99,,,-99.99,,2013-02-17 13:52:00,
2013-02-17 08:01:00,21.0,20.0,-100.00,South,170,19.0,21.0,99,-99.99,,,-99.99,,2013-02-17 14:01:00,
2013-02-17 08:10:00,21.0,21.0,-100.00,SSE,165,20.0,23.0,99,-99.99,,,-99.99,,2013-02-17 14:10:00,
2013-02-17 08:32:00,21.0,21.0,-100.00,SSE,165,20.0,23.0,99,-99.99,,,-99.99,,2013-02-17 14:32:00,
2013-02-17 08:42:00,21.0,21.0,-100.00,SSE,165,20.0,23.0,99,-99.99,,,-99.99,,2013-02-17 14:42:00,
2013-02-17 08:53:00,21.0,21.0,-100.00,SSE,165,20.0,23.0,99,-99.99,,,-99.99,,2013-02-17 14:53:00,
2013-02-17 09:02:00,21.0,21.0,-100.00,SSE,165,20.0,23.0,99,-99.99,,,-99.99,,2013-02-17 15:02:00,
2013-02-17 09:32:00,21.0,21.0,-100.00,SSE,160,18.0,20.0,99,-99.99,,,-99.99,,2013-02-17 15:32:00,
2013-02-17 09:42:00,21.0,21.0,-100.00,SSE,160,18.0,20.0,99,-99.99,,,-99.99,,2013-02-17 15:42:00,
2013-02-17 09:52:00,21.0,21.0,-100.00,SSE,160,18.0,20.0,99,-99.99,,,-99.99,,2013-02-17 15:52:00,
2013-02-17 10:01:00,21.0,21.0,-100.00,SSE,160,18.0,20.0,99,-99.99,,,-99.99,,2013-02-17 16:01:00,
2013-02-17 10:32:00,21.0,21.0,-100.00,SSE,160,16.0,19.0,99,-99.99,,,-99.99,,2013-02-17 16:32:00,
2013-02-17 10:42:00,21.0,21.0,-100.00,SSE,160,16.0,19.0,99,-99.99,,,-99.99,,2013-02-17 16:42:00,
2013-02-17 10:52:00,21.0,21.0,-100.00,SSE,160,16.0,19.0,99,-99.99,,,-99.99,,2013-02-17 16:52:00,
2013-02-17 11:02:00,21.0,21.0,-100.00,SSE,160,16.0,19.0,99,-99.99,,,-99.99,,2013-02-17 17:02:00,
2013-02-17 11:32:00,23.0,23.0,-100.00,SSE,165,22.0,25.0,99,-99.99,,,-99.99,,2013-02-17 17:32:00,
2013-02-17 11:42:00,23.0,23.0,-100.00,SSE,165,22.0,25.0,99,-99.99,,,-99.99,,2013-02-17 17:42:00,
2013-02-17 11:52:00,23.0,23.0,-100.00,SSE,165,22.0,25.0,99,-99.99,,,-99.99,,2013-02-17 17:52:00,
2013-02-17 12:02:00,23.0,23.0,-100.00,SSE,165,22.0,25.0,99,-99.99,,,-99.99,,2013-02-17 18:02:00,
2013-02-17 12:33:00,25.0,25.0,-100.00,South,170,16.0,17.0,99,-99.99,,,-99.99,,2013-02-17 18:33:00,
2013-02-17 12:42:00,25.0,25.0,-100.00,South,170,16.0,17.0,99,-99.99,,,-99.99,,2013-02-17 18:42:00,
2013-02-17 12:52:00,25.0,25.0,-100.00,South,170,16.0,17.0,99,-99.99,,,-99.99,,2013-02-17 18:52:00,
2013-02-17 13:01:00,25.0,25.0,-100.00,South,170,16.0,17.0,99,-99.99,,,-99.99,,2013-02-17 19:01:00,
2013-02-17 13:32:00,27.0,27.0,-100.00,SSE,165,19.0,21.0,99,-99.99,,,-99.99,,2013-02-17 19:32:00,
2013-02-17 13:42:00,27.0,27.0,-100.00,SSE,165,19.0,21.0,99,-99.99,,,-99.99,,2013-02-17 19:42:00,
2013-02-17 13:52:00,27.0,27.0,-100.00,SSE,165,19.0,21.0,99,-99.99,,,-99.99,,2013-02-17 19:52:00,
2013-02-17 14:02:00,27.0,27.0,-100.00,SSE,165,19.0,21.0,99,-99.99,,,-99.99,,2013-02-17 20:02:00,
2013-02-17 14:32:00,31.0,30.0,-100.00,South,185,19.0,23.0,99,-99.99,,,-99.99,,2013-02-17 20:32:00,
2013-02-17 15:32:00,31.0,31.0,-100.00,South,180,17.0,20.0,99,-99.99,,,-99.99,,2013-02-17 21:32:00,
2013-02-17 15:42:00,31.0,31.0,-100.00,South,180,17.0,20.0,99,-99.99,,,-99.99,,2013-02-17 21:42:00,
2013-02-17 15:53:00,31.0,31.0,-100.00,South,180,17.0,20.0,99,-99.99,,,-99.99,,2013-02-17 21:53:00,
2013-02-17 16:01:00,31.0,31.0,-100.00,South,180,17.0,20.0,99,-99.99,,,-99.99,,2013-02-17 22:01:00,
2013-02-17 16:10:00,31.0,31.0,-100.00,South,185,17.0,20.0,99,-99.99,,,-99.99,,2013-02-17 22:10:00,
2013-02-17 16:32:00,31.0,31.0,-100.00,South,185,17.0,20.0,99,-99.99,,,-99.99,,2013-02-17 22:32:00,
2013-02-17 16:42:00,31.0,31.0,-100.00,South,185,17.0,20.0,99,-99.99,,,-99.99,,2013-02-17 22:42:00,
2013-02-17 16:52:00,31.0,31.0,-100.00,South,185,17.0,20.0,99,-99.99,,,-99.99,,2013-02-17 22:52:00,
2013-02-17 17:02:00,31.0,31.0,-100.00,South,185,17.0,20.0,99,-99.99,,,-99.99,,2013-02-17 23:02:00,
2013-02-17 17:32:00,31.0,31.0,-100.00,South,170,17.0,17.0,99,-99.99,,,-99.99,,2013-02-17 23:32:00,
2013-02-17 17:42:00,31.0,31.0,-100.00,South,170,17.0,17.0,99,-99.99,,,-99.99,,2013-02-17 23:42:00,
2013-02-17 17:52:00,31.0,31.0,-100.00,South,170,17.0,17.0,99,-99.99,,,-99.99,,2013-02-17 23:52:00,
2013-02-17 18:01:00,31.0,31.0,-100.00,South,170,17.0,17.0,99,-99.99,,,-99.99,,2013-02-18 00:01:00,
2013-02-17 18:32:00,31.0,30.0,-100.00,South,175,16.0,19.0,99,-99.99,,,-99.99,,2013-02-18 00:32:00,
2013-02-17 18:42:00,31.0,30.0,-100.00,South,175,16.0,19.0,99,-99.99,,,-99.99,,2013-02-18 00:42:00,
2013-02-17 18:52:00,31.0,30.0,-100.00,South,175,16.0,19.0,99,-99.99,,,-99.99,,2013-02-18 00:52:00,
2013-02-17 19:01:00,31.0,30.0,-100.00,South,175,16.0,19.0,99,-99.99,,,-99.99,,2013-02-18 01:01:00,
2013-02-17 19:10:00,29.0,29.0,-100.00,South,170,14.0,18.0,99,-99.99,,,-99.99,,2013-02-18 01:10:00,
2013-02-17 19:32:00,29.0,29.0,-100.00,South,170,14.0,18.0,99,-99.99,,,-99.99,,2013-02-18 01:32:00,
2013-02-17 19:42:00,29.0,29.0,-100.00,South,170,14.0,18.0,99,-99.99,,,-99.99,,2013-02-18 01:42:00,
2013-02-17 19:52:00,29.0,29.0,-100.00,South,170,14.0,18.0,99,-99.99,,,-99.99,,2013-02-18 01:52:00,
2013-02-17 20:01:00,29.0,29.0,-100.00,South,170,14.0,18.0,99,-99.99,,,-99.99,,2013-02-18 02:01:00,
2013-02-17 20:32:00,30.0,30.0,-100.00,South,185,10.0,12.0,99,-99.99,,,-99.99,,2013-02-18 02:32:00,
2013-02-17 20:42:00,30.0,30.0,-100.00,South,185,10.0,12.0,99,-99.99,,,-99.99,,2013-02-18 02:42:00,
2013-02-17 20:52:00,30.0,30.0,-100.00,South,185,10.0,12.0,99,-99.99,,,-99.99,,2013-02-18 02:52:00,
2013-02-17 21:01:00,30.0,30.0,-100.00,South,185,10.0,12.0,99,-99.99,,,-99.99,,2013-02-18 03:01:00,
2013-02-17 21:32:00,30.0,29.0,-100.00,South,185,12.0,14.0,99,-99.99,,,-99.99,,2013-02-18 03:32:00,
2013-02-17 21:42:00,30.0,29.0,-100.00,South,185,12.0,14.0,99,-99.99,,,-99.99,,2013-02-18 03:42:00,
2013-02-17 21:52:00,30.0,29.0,-100.00,South,185,12.0,14.0,99,-99.99,,,-99.99,,2013-02-18 03:52:00,
2013-02-17 22:01:00,30.0,29.0,-100.00,South,185,12.0,14.0,99,-99.99,,,-99.99,,2013-02-18 04:01:00,
2013-02-17 22:32:00,30.0,30.0,-100.00,SSW,195,8.0,9.0,99,-99.99,,,-99.99,,2013-02-18 04:32:00,
2013-02-17 22:42:00,30.0,30.0,-100.00,SSW,195,8.0,9.0,99,-99.99,,,-99.99,,2013-02-18 04:42:00,
2013-02-17 22:52:00,30.0,30.0,-100.00,SSW,195,8.0,9.0,99,-99.99,,,-99.99,,2013-02-18 04:52:00,
2013-02-17 23:02:00,30.0,30.0,-100.00,SSW,195,8.0,9.0,99,-99.99,,,-99.99,,2013-02-18 05:02:00,
2013-02-17 23:32:00,29.0,29.0,-100.00,NW,305,11.0,13.0,99,-99.99,,,-99.99,,2013-02-18 05:32:00,
2013-02-17 23:42:00,29.0,29.0,-100.00,NW,305,11.0,13.0,99,-99.99,,,-99.99,,2013-02-18 05:42:00,
2013-02-17 23:52:00,29.0,29.0,-100.00,NW,305,11.0,13.0,99,-99.99,,,-99.99,,2013-02-18 05:52:00,